sensor_id;sensor_type;location;lat;lon;timestamp;temperature;humidity
75217;HTU21D;63800;51.972;5.682;2023-02-22T00:00:28;7.18;96.81
75217;HTU21D;63800;51.972;5.682;2023-02-22T00:03:09;7.19;96.57
75217;HTU21D;63800;51.972;5.682;2023-02-22T00:05:35;7.38;96.03
75217;HTU21D;63800;51.972;5.682;2023-02-22T00:08:04;7.30;96.51
75217;HTU21D;63800;51.972;5.682;2023-02-22T00:10:33;7.32;95.45
75217;HTU21D;63800;51.972;5.682;2023-02-22T00:12:59;7.34;94.75
75217;HTU21D;63800;51.972;5.682;2023-02-22T00:15:24;7.18;96.35
75217;HTU21D;63800;51.972;5.682;2023-02-22T00:17:53;7.09;96.60
75217;HTU21D;63800;51.972;5.682;2023-02-22T00:20:19;7.22;96.79
75217;HTU21D;63800;51.972;5.682;2023-02-22T00:22:48;6.81;97.82
75217;HTU21D;63800;51.972;5.682;2023-02-22T00:25:17;7.13;96.61
75217;HTU21D;63800;51.972;5.682;2023-02-22T00:27:44;7.18;96.62
75217;HTU21D;63800;51.972;5.682;2023-02-22T00:30:14;7.15;96.51
75217;HTU21D;63800;51.972;5.682;2023-02-22T00:32:44;7.18;95.52
75217;HTU21D;63800;51.972;5.682;2023-02-22T00:35:10;7.24;95.61
75217;HTU21D;63800;51.972;5.682;2023-02-22T00:37:35;7.10;95.31
75217;HTU21D;63800;51.972;5.682;2023-02-22T00:40:00;6.98;95.62
75217;HTU21D;63800;51.972;5.682;2023-02-22T00:42:26;7.04;95.62
75217;HTU21D;63800;51.972;5.682;2023-02-22T00:44:52;6.96;95.57
75217;HTU21D;63800;51.972;5.682;2023-02-22T00:47:38;6.93;96.80
75217;HTU21D;63800;51.972;5.682;2023-02-22T00:50:10;7.07;95.32
75217;HTU21D;63800;51.972;5.682;2023-02-22T00:52:37;6.81;95.74
75217;HTU21D;63800;51.972;5.682;2023-02-22T00:55:05;6.52;97.31
75217;HTU21D;63800;51.972;5.682;2023-02-22T00:57:31;6.86;96.39
75217;HTU21D;63800;51.972;5.682;2023-02-22T01:00:00;7.04;95.80
75217;HTU21D;63800;51.972;5.682;2023-02-22T01:02:27;6.89;94.88
75217;HTU21D;63800;51.972;5.682;2023-02-22T01:04:53;6.94;94.91
75217;HTU21D;63800;51.972;5.682;2023-02-22T01:07:18;6.98;95.49
75217;HTU21D;63800;51.972;5.682;2023-02-22T01:09:45;7.07;94.56
75217;HTU21D;63800;51.972;5.682;2023-02-22T01:12:10;6.99;94.99
75217;HTU21D;63800;51.972;5.682;2023-02-22T01:14:37;7.22;93.88
75217;HTU21D;63800;51.972;5.682;2023-02-22T01:17:04;7.02;94.32
75217;HTU21D;63800;51.972;5.682;2023-02-22T01:19:29;6.91;95.62
75217;HTU21D;63800;51.972;5.682;2023-02-22T01:21:56;6.65;96.48
75217;HTU21D;63800;51.972;5.682;2023-02-22T01:24:21;6.39;97.90
75217;HTU21D;63800;51.972;5.682;2023-02-22T01:26:51;6.42;98.10
75217;HTU21D;63800;51.972;5.682;2023-02-22T01:29:18;6.51;97.60
75217;HTU21D;63800;51.972;5.682;2023-02-22T01:31:52;6.61;97.13
75217;HTU21D;63800;51.972;5.682;2023-02-22T01:34:19;6.72;97.39
75217;HTU21D;63800;51.972;5.682;2023-02-22T01:36:45;6.43;97.87
75217;HTU21D;63800;51.972;5.682;2023-02-22T01:39:10;6.34;97.44
75217;HTU21D;63800;51.972;5.682;2023-02-22T01:41:36;6.23;98.60
75217;HTU21D;63800;51.972;5.682;2023-02-22T01:44:18;6.43;96.79
75217;HTU21D;63800;51.972;5.682;2023-02-22T01:46:44;6.48;97.03
75217;HTU21D;63800;51.972;5.682;2023-02-22T01:49:10;6.50;96.56
75217;HTU21D;63800;51.972;5.682;2023-02-22T01:51:41;6.37;97.52
75217;HTU21D;63800;51.972;5.682;2023-02-22T01:54:09;6.45;96.38
75217;HTU21D;63800;51.972;5.682;2023-02-22T01:56:39;6.40;96.49
75217;HTU21D;63800;51.972;5.682;2023-02-22T01:59:07;6.11;99.35
75217;HTU21D;63800;51.972;5.682;2023-02-22T02:01:35;6.29;98.12
75217;HTU21D;63800;51.972;5.682;2023-02-22T02:04:05;6.52;96.45
75217;HTU21D;63800;51.972;5.682;2023-02-22T02:06:32;6.11;97.36
75217;HTU21D;63800;51.972;5.682;2023-02-22T02:11:37;6.48;96.37
75217;HTU21D;63800;51.972;5.682;2023-02-22T02:14:08;6.36;96.29
75217;HTU21D;63800;51.972;5.682;2023-02-22T02:16:40;6.10;97.74
75217;HTU21D;63800;51.972;5.682;2023-02-22T02:19:14;6.28;97.20
75217;HTU21D;63800;51.972;5.682;2023-02-22T02:21:50;6.06;98.04
75217;HTU21D;63800;51.972;5.682;2023-02-22T02:27:11;5.99;98.06
75217;HTU21D;63800;51.972;5.682;2023-02-22T02:33:16;5.92;98.40
75217;HTU21D;63800;51.972;5.682;2023-02-22T02:38:33;6.21;97.82
75217;HTU21D;63800;51.972;5.682;2023-02-22T02:41:17;6.31;97.39
75217;HTU21D;63800;51.972;5.682;2023-02-22T02:44:13;6.17;97.06
75217;HTU21D;63800;51.972;5.682;2023-02-22T02:46:49;6.14;97.52
75217;HTU21D;63800;51.972;5.682;2023-02-22T02:49:20;6.11;98.25
75217;HTU21D;63800;51.972;5.682;2023-02-22T02:51:49;5.98;98.23
75217;HTU21D;63800;51.972;5.682;2023-02-22T02:54:17;6.23;97.21
75217;HTU21D;63800;51.972;5.682;2023-02-22T02:56:44;6.37;95.72
75217;HTU21D;63800;51.972;5.682;2023-02-22T03:04:45;6.28;95.10
75217;HTU21D;63800;51.972;5.682;2023-02-22T03:10:28;5.89;98.42
75217;HTU21D;63800;51.972;5.682;2023-02-22T03:21:28;6.38;95.88
75217;HTU21D;63800;51.972;5.682;2023-02-22T03:26:48;5.99;97.56
75217;HTU21D;63800;51.972;5.682;2023-02-22T03:29:17;5.66;99.53
75217;HTU21D;63800;51.972;5.682;2023-02-22T03:31:53;5.71;97.87
75217;HTU21D;63800;51.972;5.682;2023-02-22T03:34:28;5.45;99.76
75217;HTU21D;63800;51.972;5.682;2023-02-22T03:37:09;5.48;100.21
75217;HTU21D;63800;51.972;5.682;2023-02-22T03:39:39;5.55;99.51
75217;HTU21D;63800;51.972;5.682;2023-02-22T03:42:09;5.62;99.80
75217;HTU21D;63800;51.972;5.682;2023-02-22T03:44:38;5.79;99.09
75217;HTU21D;63800;51.972;5.682;2023-02-22T03:47:08;5.98;98.03
75217;HTU21D;63800;51.972;5.682;2023-02-22T03:49:48;5.55;99.22
75217;HTU21D;63800;51.972;5.682;2023-02-22T03:52:15;5.48;100.46
75217;HTU21D;63800;51.972;5.682;2023-02-22T03:54:42;5.64;99.11
75217;HTU21D;63800;51.972;5.682;2023-02-22T03:57:24;5.60;99.61
75217;HTU21D;63800;51.972;5.682;2023-02-22T03:59:50;5.21;101.64
75217;HTU21D;63800;51.972;5.682;2023-02-22T04:02:16;5.40;101.15
75217;HTU21D;63800;51.972;5.682;2023-02-22T04:04:44;5.25;102.11
75217;HTU21D;63800;51.972;5.682;2023-02-22T04:07:09;5.23;101.35
75217;HTU21D;63800;51.972;5.682;2023-02-22T04:09:35;5.38;100.97
75217;HTU21D;63800;51.972;5.682;2023-02-22T04:12:01;5.52;100.18
75217;HTU21D;63800;51.972;5.682;2023-02-22T04:14:28;5.64;99.47
75217;HTU21D;63800;51.972;5.682;2023-02-22T04:16:54;5.74;98.13
75217;HTU21D;63800;51.972;5.682;2023-02-22T04:19:19;5.57;99.19
75217;HTU21D;63800;51.972;5.682;2023-02-22T04:21:45;5.64;99.75
75217;HTU21D;63800;51.972;5.682;2023-02-22T04:24:10;5.53;100.45
75217;HTU21D;63800;51.972;5.682;2023-02-22T04:26:36;5.67;100.06
75217;HTU21D;63800;51.972;5.682;2023-02-22T04:29:02;5.80;100.04
75217;HTU21D;63800;51.972;5.682;2023-02-22T04:31:29;5.82;99.00
75217;HTU21D;63800;51.972;5.682;2023-02-22T04:33:55;5.93;97.94
75217;HTU21D;63800;51.972;5.682;2023-02-22T04:36:20;5.87;99.00
75217;HTU21D;63800;51.972;5.682;2023-02-22T04:38:46;5.82;98.49
75217;HTU21D;63800;51.972;5.682;2023-02-22T04:41:12;5.68;99.29
75217;HTU21D;63800;51.972;5.682;2023-02-22T04:43:38;5.79;99.09
75217;HTU21D;63800;51.972;5.682;2023-02-22T04:46:03;5.78;98.54
75217;HTU21D;63800;51.972;5.682;2023-02-22T04:48:29;5.23;101.93
75217;HTU21D;63800;51.972;5.682;2023-02-22T04:50:55;5.05;104.26
75217;HTU21D;63800;51.972;5.682;2023-02-22T04:53:20;5.38;102.33
75217;HTU21D;63800;51.972;5.682;2023-02-22T04:55:46;5.56;101.19
75217;HTU21D;63800;51.972;5.682;2023-02-22T04:58:11;5.59;101.72
75217;HTU21D;63800;51.972;5.682;2023-02-22T05:00:37;5.63;101.36
75217;HTU21D;63800;51.972;5.682;2023-02-22T05:03:02;5.67;100.78
75217;HTU21D;63800;51.972;5.682;2023-02-22T05:05:28;5.76;100.61
75217;HTU21D;63800;51.972;5.682;2023-02-22T05:07:53;5.62;101.37
75217;HTU21D;63800;51.972;5.682;2023-02-22T05:10:19;5.85;100.20
75217;HTU21D;63800;51.972;5.682;2023-02-22T05:12:44;6.02;98.92
75217;HTU21D;63800;51.972;5.682;2023-02-22T05:15:10;6.09;98.57
75217;HTU21D;63800;51.972;5.682;2023-02-22T05:17:39;5.78;99.96
75217;HTU21D;63800;51.972;5.682;2023-02-22T05:20:05;5.81;100.22
75217;HTU21D;63800;51.972;5.682;2023-02-22T05:22:33;5.97;99.21
75217;HTU21D;63800;51.972;5.682;2023-02-22T05:24:58;5.81;99.26
75217;HTU21D;63800;51.972;5.682;2023-02-22T05:27:24;5.63;100.16
75217;HTU21D;63800;51.972;5.682;2023-02-22T05:29:49;5.49;100.54
75217;HTU21D;63800;51.972;5.682;2023-02-22T05:32:14;5.32;102.18
75217;HTU21D;63800;51.972;5.682;2023-02-22T05:34:40;5.36;101.33
75217;HTU21D;63800;51.972;5.682;2023-02-22T05:37:06;5.50;101.03
75217;HTU21D;63800;51.972;5.682;2023-02-22T05:39:31;5.32;101.26
75217;HTU21D;63800;51.972;5.682;2023-02-22T05:41:57;5.33;101.90
75217;HTU21D;63800;51.972;5.682;2023-02-22T05:44:23;5.57;100.55
75217;HTU21D;63800;51.972;5.682;2023-02-22T05:46:48;5.59;100.54
75217;HTU21D;63800;51.972;5.682;2023-02-22T05:49:14;5.69;100.12
75217;HTU21D;63800;51.972;5.682;2023-02-22T05:51:40;5.31;102.22
75217;HTU21D;63800;51.972;5.682;2023-02-22T05:54:05;5.52;101.21
75217;HTU21D;63800;51.972;5.682;2023-02-22T05:56:31;5.39;101.91
75217;HTU21D;63800;51.972;5.682;2023-02-22T05:58:56;5.46;101.91
75217;HTU21D;63800;51.972;5.682;2023-02-22T06:01:23;5.46;101.77
75217;HTU21D;63800;51.972;5.682;2023-02-22T06:03:49;5.53;101.26
75217;HTU21D;63800;51.972;5.682;2023-02-22T06:06:15;5.26;102.23
75217;HTU21D;63800;51.972;5.682;2023-02-22T06:08:41;5.47;100.73
75217;HTU21D;63800;51.972;5.682;2023-02-22T06:11:07;5.27;102.13
75217;HTU21D;63800;51.972;5.682;2023-02-22T06:13:34;5.41;101.00
75217;HTU21D;63800;51.972;5.682;2023-02-22T06:16:00;5.08;103.42
75217;HTU21D;63800;51.972;5.682;2023-02-22T06:18:28;5.15;103.46
75217;HTU21D;63800;51.972;5.682;2023-02-22T06:20:57;5.28;102.92
75217;HTU21D;63800;51.972;5.682;2023-02-22T06:23:24;5.23;103.08
75217;HTU21D;63800;51.972;5.682;2023-02-22T06:25:50;5.31;102.92
75217;HTU21D;63800;51.972;5.682;2023-02-22T06:28:15;5.36;103.04
75217;HTU21D;63800;51.972;5.682;2023-02-22T06:30:41;5.34;103.06
75217;HTU21D;63800;51.972;5.682;2023-02-22T06:33:09;5.28;103.76
75217;HTU21D;63800;51.972;5.682;2023-02-22T06:35:35;5.22;104.66
75217;HTU21D;63800;51.972;5.682;2023-02-22T06:38:01;5.11;105.76
75217;HTU21D;63800;51.972;5.682;2023-02-22T06:40:26;5.06;106.24
75217;HTU21D;63800;51.972;5.682;2023-02-22T06:42:56;5.34;105.09
75217;HTU21D;63800;51.972;5.682;2023-02-22T06:45:22;5.41;104.15
75217;HTU21D;63800;51.972;5.682;2023-02-22T06:47:47;5.35;105.49
75217;HTU21D;63800;51.972;5.682;2023-02-22T06:50:21;5.54;103.79
75217;HTU21D;63800;51.972;5.682;2023-02-22T06:52:47;5.62;103.40
75217;HTU21D;63800;51.972;5.682;2023-02-22T06:55:19;5.74;102.90
75217;HTU21D;63800;51.972;5.682;2023-02-22T06:57:45;5.57;104.12
75217;HTU21D;63800;51.972;5.682;2023-02-22T07:00:11;5.53;104.13
75217;HTU21D;63800;51.972;5.682;2023-02-22T07:02:37;5.53;104.08
75217;HTU21D;63800;51.972;5.682;2023-02-22T07:05:03;5.64;103.69
75217;HTU21D;63800;51.972;5.682;2023-02-22T07:07:28;5.64;103.91
75217;HTU21D;63800;51.972;5.682;2023-02-22T07:09:54;5.76;103.17
75217;HTU21D;63800;51.972;5.682;2023-02-22T07:12:19;5.78;102.81
75217;HTU21D;63800;51.972;5.682;2023-02-22T07:14:45;6.01;101.60
75217;HTU21D;63800;51.972;5.682;2023-02-22T07:17:10;5.94;101.63
75217;HTU21D;63800;51.972;5.682;2023-02-22T07:19:36;5.97;101.51
75217;HTU21D;63800;51.972;5.682;2023-02-22T07:22:01;6.01;101.08
75217;HTU21D;63800;51.972;5.682;2023-02-22T07:24:27;6.02;100.88
75217;HTU21D;63800;51.972;5.682;2023-02-22T07:26:53;5.70;103.25
75217;HTU21D;63800;51.972;5.682;2023-02-22T07:29:18;5.87;102.13
75217;HTU21D;63800;51.972;5.682;2023-02-22T07:31:46;5.79;102.66
75217;HTU21D;63800;51.972;5.682;2023-02-22T07:34:12;5.65;104.28
75217;HTU21D;63800;51.972;5.682;2023-02-22T07:36:38;5.87;103.40
75217;HTU21D;63800;51.972;5.682;2023-02-22T07:39:04;5.93;103.03
75217;HTU21D;63800;51.972;5.682;2023-02-22T07:41:33;5.86;102.84
75217;HTU21D;63800;51.972;5.682;2023-02-22T07:43:58;5.82;102.92
75217;HTU21D;63800;51.972;5.682;2023-02-22T07:46:24;5.95;102.57
75217;HTU21D;63800;51.972;5.682;2023-02-22T07:48:49;5.69;103.42
75217;HTU21D;63800;51.972;5.682;2023-02-22T07:51:15;5.76;103.47
75217;HTU21D;63800;51.972;5.682;2023-02-22T07:53:41;5.97;101.91
75217;HTU21D;63800;51.972;5.682;2023-02-22T07:56:06;6.10;101.35
75217;HTU21D;63800;51.972;5.682;2023-02-22T07:58:33;5.79;103.69
75217;HTU21D;63800;51.972;5.682;2023-02-22T08:01:00;5.86;103.19
75217;HTU21D;63800;51.972;5.682;2023-02-22T08:03:31;5.76;103.83
75217;HTU21D;63800;51.972;5.682;2023-02-22T08:05:58;5.74;104.75
75217;HTU21D;63800;51.972;5.682;2023-02-22T08:08:25;5.86;104.31
75217;HTU21D;63800;51.972;5.682;2023-02-22T08:10:51;6.02;103.69
75217;HTU21D;63800;51.972;5.682;2023-02-22T08:13:17;5.99;103.23
75217;HTU21D;63800;51.972;5.682;2023-02-22T08:15:43;6.10;103.56
75217;HTU21D;63800;51.972;5.682;2023-02-22T08:18:14;6.16;102.29
75217;HTU21D;63800;51.972;5.682;2023-02-22T08:20:41;6.16;103.14
75217;HTU21D;63800;51.972;5.682;2023-02-22T08:23:08;6.42;101.19
75217;HTU21D;63800;51.972;5.682;2023-02-22T08:25:34;6.30;102.12
75217;HTU21D;63800;51.972;5.682;2023-02-22T08:28:04;6.41;101.64
75217;HTU21D;63800;51.972;5.682;2023-02-22T08:30:31;6.35;102.72
75217;HTU21D;63800;51.972;5.682;2023-02-22T08:32:59;6.23;103.04
75217;HTU21D;63800;51.972;5.682;2023-02-22T08:35:27;6.19;103.76
75217;HTU21D;63800;51.972;5.682;2023-02-22T08:37:56;5.82;106.59
75217;HTU21D;63800;51.972;5.682;2023-02-22T08:40:24;6.13;105.15
75217;HTU21D;63800;51.972;5.682;2023-02-22T08:42:51;6.21;104.08
75217;HTU21D;63800;51.972;5.682;2023-02-22T08:45:17;6.35;102.70
75217;HTU21D;63800;51.972;5.682;2023-02-22T08:47:43;6.14;104.05
75217;HTU21D;63800;51.972;5.682;2023-02-22T08:50:15;6.36;102.64
75217;HTU21D;63800;51.972;5.682;2023-02-22T08:52:41;6.26;103.69
75217;HTU21D;63800;51.972;5.682;2023-02-22T08:55:09;6.41;103.02
75217;HTU21D;63800;51.972;5.682;2023-02-22T08:57:34;6.41;101.98
75217;HTU21D;63800;51.972;5.682;2023-02-22T09:00:00;6.46;101.97
75217;HTU21D;63800;51.972;5.682;2023-02-22T09:02:26;6.48;101.83
75217;HTU21D;63800;51.972;5.682;2023-02-22T09:04:51;6.67;101.60
75217;HTU21D;63800;51.972;5.682;2023-02-22T09:07:17;6.74;101.14
75217;HTU21D;63800;51.972;5.682;2023-02-22T09:09:43;6.83;100.92
75217;HTU21D;63800;51.972;5.682;2023-02-22T09:12:09;7.00;99.69
75217;HTU21D;63800;51.972;5.682;2023-02-22T09:14:34;6.91;100.14
75217;HTU21D;63800;51.972;5.682;2023-02-22T09:17:00;7.14;98.74
75217;HTU21D;63800;51.972;5.682;2023-02-22T09:19:26;7.27;97.57
75217;HTU21D;63800;51.972;5.682;2023-02-22T09:21:55;7.08;98.03
75217;HTU21D;63800;51.972;5.682;2023-02-22T09:24:21;7.22;98.32
75217;HTU21D;63800;51.972;5.682;2023-02-22T09:26:47;7.25;99.04
75217;HTU21D;63800;51.972;5.682;2023-02-22T09:29:17;7.16;99.03
75217;HTU21D;63800;51.972;5.682;2023-02-22T09:31:47;7.27;98.46
75217;HTU21D;63800;51.972;5.682;2023-02-22T09:34:13;7.18;96.94
75217;HTU21D;63800;51.972;5.682;2023-02-22T09:36:42;7.32;97.00
75217;HTU21D;63800;51.972;5.682;2023-02-22T09:39:08;7.50;96.97
75217;HTU21D;63800;51.972;5.682;2023-02-22T09:41:50;7.47;96.38
75217;HTU21D;63800;51.972;5.682;2023-02-22T09:44:48;7.11;98.19
75217;HTU21D;63800;51.972;5.682;2023-02-22T09:47:20;7.58;96.28
75217;HTU21D;63800;51.972;5.682;2023-02-22T09:49:57;7.45;96.55
75217;HTU21D;63800;51.972;5.682;2023-02-22T09:52:34;7.60;96.47
75217;HTU21D;63800;51.972;5.682;2023-02-22T09:55:14;7.62;95.85
75217;HTU21D;63800;51.972;5.682;2023-02-22T09:57:45;7.58;95.55
75217;HTU21D;63800;51.972;5.682;2023-02-22T10:05:35;7.73;95.74
75217;HTU21D;63800;51.972;5.682;2023-02-22T10:08:10;7.83;95.52
75217;HTU21D;63800;51.972;5.682;2023-02-22T10:10:39;7.85;95.52
75217;HTU21D;63800;51.972;5.682;2023-02-22T10:16:25;8.34;94.00
75217;HTU21D;63800;51.972;5.682;2023-02-22T10:19:04;8.45;93.09
75217;HTU21D;63800;51.972;5.682;2023-02-22T10:26:42;8.53;91.30
75217;HTU21D;63800;51.972;5.682;2023-02-22T10:31:56;8.78;90.86
75217;HTU21D;63800;51.972;5.682;2023-02-22T10:34:29;8.88;90.47
75217;HTU21D;63800;51.972;5.682;2023-02-22T10:39:49;8.78;90.90
75217;HTU21D;63800;51.972;5.682;2023-02-22T10:42:18;8.88;90.37
75217;HTU21D;63800;51.972;5.682;2023-02-22T10:44:46;9.06;89.31
75217;HTU21D;63800;51.972;5.682;2023-02-22T10:47:30;9.15;88.79
75217;HTU21D;63800;51.972;5.682;2023-02-22T10:49:58;9.02;88.47
75217;HTU21D;63800;51.972;5.682;2023-02-22T10:52:33;9.16;87.89
75217;HTU21D;63800;51.972;5.682;2023-02-22T10:55:00;9.55;87.43
75217;HTU21D;63800;51.972;5.682;2023-02-22T10:57:36;9.71;86.22
75217;HTU21D;63800;51.972;5.682;2023-02-22T11:00:27;9.86;86.18
75217;HTU21D;63800;51.972;5.682;2023-02-22T11:02:58;10.18;84.84
75217;HTU21D;63800;51.972;5.682;2023-02-22T11:08:23;10.13;82.84
75217;HTU21D;63800;51.972;5.682;2023-02-22T11:10:56;10.49;81.69
75217;HTU21D;63800;51.972;5.682;2023-02-22T11:13:31;10.67;82.37
75217;HTU21D;63800;51.972;5.682;2023-02-22T11:15:59;10.94;79.24
75217;HTU21D;63800;51.972;5.682;2023-02-22T11:18:31;10.98;79.75
75217;HTU21D;63800;51.972;5.682;2023-02-22T11:21:20;10.22;83.96
75217;HTU21D;63800;51.972;5.682;2023-02-22T11:23:47;10.35;83.44
75217;HTU21D;63800;51.972;5.682;2023-02-22T11:26:17;10.44;82.69
75217;HTU21D;63800;51.972;5.682;2023-02-22T11:28:46;10.74;80.85
75217;HTU21D;63800;51.972;5.682;2023-02-22T11:31:19;10.59;82.20
75217;HTU21D;63800;51.972;5.682;2023-02-22T11:39:04;9.75;85.92
75217;HTU21D;63800;51.972;5.682;2023-02-22T11:41:32;9.71;84.29
75217;HTU21D;63800;51.972;5.682;2023-02-22T11:46:46;9.82;81.35
75217;HTU21D;63800;51.972;5.682;2023-02-22T11:49:12;9.68;81.84
75217;HTU21D;63800;51.972;5.682;2023-02-22T11:52:23;9.69;82.49
75217;HTU21D;63800;51.972;5.682;2023-02-22T11:54:59;10.11;81.36
75217;HTU21D;63800;51.972;5.682;2023-02-22T12:08:52;10.22;79.27
75217;HTU21D;63800;51.972;5.682;2023-02-22T12:17:32;11.42;75.75
75217;HTU21D;63800;51.972;5.682;2023-02-22T12:20:14;11.63;74.22
75217;HTU21D;63800;51.972;5.682;2023-02-22T12:25:33;10.56;77.48
75217;HTU21D;63800;51.972;5.682;2023-02-22T12:28:13;10.63;77.36
75217;HTU21D;63800;51.972;5.682;2023-02-22T12:30:43;10.59;78.52
75217;HTU21D;63800;51.972;5.682;2023-02-22T12:33:17;10.46;78.75
75217;HTU21D;63800;51.972;5.682;2023-02-22T12:35:50;10.44;79.30
75217;HTU21D;63800;51.972;5.682;2023-02-22T12:40:49;9.71;81.12
75217;HTU21D;63800;51.972;5.682;2023-02-22T12:43:39;10.06;82.07
75217;HTU21D;63800;51.972;5.682;2023-02-22T12:46:36;9.93;81.27
75217;HTU21D;63800;51.972;5.682;2023-02-22T12:54:44;9.65;82.16
75217;HTU21D;63800;51.972;5.682;2023-02-22T12:57:43;9.79;83.33
75217;HTU21D;63800;51.972;5.682;2023-02-22T13:00:19;9.94;82.87
75217;HTU21D;63800;51.972;5.682;2023-02-22T13:03:02;9.91;82.16
75217;HTU21D;63800;51.972;5.682;2023-02-22T13:05:35;10.05;82.16
75217;HTU21D;63800;51.972;5.682;2023-02-22T13:08:26;9.98;82.52
75217;HTU21D;63800;51.972;5.682;2023-02-22T13:16:38;10.05;83.53
75217;HTU21D;63800;51.972;5.682;2023-02-22T13:19:49;9.98;82.45
75217;HTU21D;63800;51.972;5.682;2023-02-22T13:22:23;9.99;83.23
75217;HTU21D;63800;51.972;5.682;2023-02-22T13:25:13;9.96;82.75
75217;HTU21D;63800;51.972;5.682;2023-02-22T13:27:52;10.15;81.76
75217;HTU21D;63800;51.972;5.682;2023-02-22T13:33:17;10.39;82.84
75217;HTU21D;63800;51.972;5.682;2023-02-22T13:44:15;10.11;77.81
75217;HTU21D;63800;51.972;5.682;2023-02-22T13:47:07;10.12;78.88
75217;HTU21D;63800;51.972;5.682;2023-02-22T13:52:33;10.11;79.98
75217;HTU21D;63800;51.972;5.682;2023-02-22T13:55:05;10.10;81.10
75217;HTU21D;63800;51.972;5.682;2023-02-22T13:57:43;10.08;80.40
75217;HTU21D;63800;51.972;5.682;2023-02-22T14:03:00;10.09;82.01
75217;HTU21D;63800;51.972;5.682;2023-02-22T14:05:51;10.04;81.28
75217;HTU21D;63800;51.972;5.682;2023-02-22T14:11:44;10.05;80.48
75217;HTU21D;63800;51.972;5.682;2023-02-22T14:16:23;10.20;81.78
75217;HTU21D;63800;51.972;5.682;2023-02-22T14:19:03;10.34;81.12
75217;HTU21D;63800;51.972;5.682;2023-02-22T14:21:32;10.34;80.55
75217;HTU21D;63800;51.972;5.682;2023-02-22T14:24:11;10.36;82.68
75217;HTU21D;63800;51.972;5.682;2023-02-22T14:26:39;10.18;81.01
75217;HTU21D;63800;51.972;5.682;2023-02-22T14:31:55;10.21;82.38
75217;HTU21D;63800;51.972;5.682;2023-02-22T14:34:58;10.27;81.83
75217;HTU21D;63800;51.972;5.682;2023-02-22T14:37:31;10.26;82.48
75217;HTU21D;63800;51.972;5.682;2023-02-22T14:40:18;10.34;82.24
75217;HTU21D;63800;51.972;5.682;2023-02-22T14:43:09;10.35;81.66
75217;HTU21D;63800;51.972;5.682;2023-02-22T14:45:43;10.25;82.50
75217;HTU21D;63800;51.972;5.682;2023-02-22T14:48:21;10.25;82.72
75217;HTU21D;63800;51.972;5.682;2023-02-22T14:50:56;10.26;83.47
75217;HTU21D;63800;51.972;5.682;2023-02-22T14:53:36;10.16;84.46
75217;HTU21D;63800;51.972;5.682;2023-02-22T14:56:07;10.21;84.55
75217;HTU21D;63800;51.972;5.682;2023-02-22T15:01:31;10.23;85.41
75217;HTU21D;63800;51.972;5.682;2023-02-22T15:04:27;10.18;88.48
75217;HTU21D;63800;51.972;5.682;2023-02-22T15:06:56;10.03;87.18
75217;HTU21D;63800;51.972;5.682;2023-02-22T15:09:27;9.95;89.05
75217;HTU21D;63800;51.972;5.682;2023-02-22T15:14:31;10.07;88.07
75217;HTU21D;63800;51.972;5.682;2023-02-22T15:17:04;9.95;88.65
75217;HTU21D;63800;51.972;5.682;2023-02-22T15:19:33;9.91;89.51
75217;HTU21D;63800;51.972;5.682;2023-02-22T15:22:00;9.92;89.05
75217;HTU21D;63800;51.972;5.682;2023-02-22T15:24:31;9.98;88.24
75217;HTU21D;63800;51.972;5.682;2023-02-22T15:27:14;9.96;88.73
75217;HTU21D;63800;51.972;5.682;2023-02-22T15:29:42;10.05;88.06
75217;HTU21D;63800;51.972;5.682;2023-02-22T15:32:32;9.98;89.07
75217;HTU21D;63800;51.972;5.682;2023-02-22T15:35:24;10.03;89.21
75217;HTU21D;63800;51.972;5.682;2023-02-22T15:40:33;9.90;88.10
75217;HTU21D;63800;51.972;5.682;2023-02-22T15:43:01;9.84;88.49
75217;HTU21D;63800;51.972;5.682;2023-02-22T15:45:27;9.80;88.51
75217;HTU21D;63800;51.972;5.682;2023-02-22T15:47:53;9.70;88.51
75217;HTU21D;63800;51.972;5.682;2023-02-22T15:50:29;9.75;89.51
75217;HTU21D;63800;51.972;5.682;2023-02-22T15:53:22;9.75;89.19
75217;HTU21D;63800;51.972;5.682;2023-02-22T15:55:48;9.68;89.41
75217;HTU21D;63800;51.972;5.682;2023-02-22T15:58:21;9.64;89.80
75217;HTU21D;63800;51.972;5.682;2023-02-22T16:01:03;9.64;89.25
75217;HTU21D;63800;51.972;5.682;2023-02-22T16:03:42;9.66;90.07
75217;HTU21D;63800;51.972;5.682;2023-02-22T16:08:50;9.76;89.39
75217;HTU21D;63800;51.972;5.682;2023-02-22T16:11:30;9.53;89.66
75217;HTU21D;63800;51.972;5.682;2023-02-22T16:14:00;9.52;89.95
75217;HTU21D;63800;51.972;5.682;2023-02-22T16:16:38;9.39;90.94
75217;HTU21D;63800;51.972;5.682;2023-02-22T16:21:57;9.38;90.08
75217;HTU21D;63800;51.972;5.682;2023-02-22T16:24:32;9.41;90.44
75217;HTU21D;63800;51.972;5.682;2023-02-22T16:29:34;9.50;89.95
75217;HTU21D;63800;51.972;5.682;2023-02-22T16:32:00;9.40;89.62
75217;HTU21D;63800;51.972;5.682;2023-02-22T16:34:26;9.40;90.34
75217;HTU21D;63800;51.972;5.682;2023-02-22T16:36:51;9.38;89.81
75217;HTU21D;63800;51.972;5.682;2023-02-22T16:39:24;9.32;90.17
75217;HTU21D;63800;51.972;5.682;2023-02-22T16:41:52;9.49;89.40
75217;HTU21D;63800;51.972;5.682;2023-02-22T16:44:18;9.39;89.94
75217;HTU21D;63800;51.972;5.682;2023-02-22T16:46:44;9.30;90.51
75217;HTU21D;63800;51.972;5.682;2023-02-22T16:49:12;9.31;90.29
75217;HTU21D;63800;51.972;5.682;2023-02-22T16:51:57;9.39;90.31
75217;HTU21D;63800;51.972;5.682;2023-02-22T16:54:32;9.34;90.47
75217;HTU21D;63800;51.972;5.682;2023-02-22T16:57:00;9.31;90.81
75217;HTU21D;63800;51.972;5.682;2023-02-22T16:59:26;9.25;90.63
75217;HTU21D;63800;51.972;5.682;2023-02-22T17:01:52;9.16;91.23
75217;HTU21D;63800;51.972;5.682;2023-02-22T17:04:20;9.24;91.16
75217;HTU21D;63800;51.972;5.682;2023-02-22T17:06:47;9.20;91.70
75217;HTU21D;63800;51.972;5.682;2023-02-22T17:09:13;9.33;90.63
75217;HTU21D;63800;51.972;5.682;2023-02-22T17:11:40;9.35;90.90
75217;HTU21D;63800;51.972;5.682;2023-02-22T17:14:06;9.26;91.29
75217;HTU21D;63800;51.972;5.682;2023-02-22T17:16:32;9.24;91.41
75217;HTU21D;63800;51.972;5.682;2023-02-22T17:18:57;9.21;91.37
75217;HTU21D;63800;51.972;5.682;2023-02-22T17:21:23;9.08;92.05
75217;HTU21D;63800;51.972;5.682;2023-02-22T17:23:48;9.04;92.64
75217;HTU21D;63800;51.972;5.682;2023-02-22T17:26:15;9.11;92.43
75217;HTU21D;63800;51.972;5.682;2023-02-22T17:28:41;9.24;91.89
75217;HTU21D;63800;51.972;5.682;2023-02-22T17:31:23;9.29;91.40
75217;HTU21D;63800;51.972;5.682;2023-02-22T17:33:49;9.38;90.97
75217;HTU21D;63800;51.972;5.682;2023-02-22T17:36:15;9.38;91.02
75217;HTU21D;63800;51.972;5.682;2023-02-22T17:38:41;9.41;90.96
75217;HTU21D;63800;51.972;5.682;2023-02-22T17:41:07;9.42;90.79
75217;HTU21D;63800;51.972;5.682;2023-02-22T17:43:33;9.20;92.01
75217;HTU21D;63800;51.972;5.682;2023-02-22T17:45:58;9.18;91.72
75217;HTU21D;63800;51.972;5.682;2023-02-22T17:48:25;9.32;91.16
75217;HTU21D;63800;51.972;5.682;2023-02-22T17:50:51;9.10;92.59
75217;HTU21D;63800;51.972;5.682;2023-02-22T17:53:17;9.11;92.75
75217;HTU21D;63800;51.972;5.682;2023-02-22T17:55:46;9.03;93.02
75217;HTU21D;63800;51.972;5.682;2023-02-22T17:58:12;9.06;93.11
75217;HTU21D;63800;51.972;5.682;2023-02-22T18:00:43;8.96;93.62